Irving North's Hourly Summary for Sunday, March 19, 2017
Hour Temp
(f)
RH
(%)
Solar Rad.
(MJ/m2)
Rainfall
(in)
Wind
(mph)
3/19/2017 12:00 AM 70 70 0 0 2.03
3/19/2017 1:00 AM 68 73 0 0 0.57
3/19/2017 2:00 AM 67 77 0 0 0.01
3/19/2017 3:00 AM 66 80 0 0 0.42
3/19/2017 4:00 AM 65 81 0 0 2.09
3/19/2017 5:00 AM 64 85 0 0 2.95
3/19/2017 6:00 AM 63 88 0 0 2.55
3/19/2017 7:00 AM 63 91 0.03 0 4.21
3/19/2017 8:00 AM 65 85 0.51 0 4.76
3/19/2017 9:00 AM 67 83 0.68 0 6.27
3/19/2017 10:00 AM 69 71 1.6 0 6.25
3/19/2017 11:00 AM 73 66 2.54 0 6.35
3/19/2017 12:00 PM 76 58 2.84 0 7.65
3/19/2017 1:00 PM 78 56 3.11 0 8.53
3/19/2017 2:00 PM 80 50 3.01 0 9.74
3/19/2017 3:00 PM 82 45 2.67 0 9.91
3/19/2017 4:00 PM 83 44 2.08 0 10.01
3/19/2017 5:00 PM 82 45 1.4 0 9.43
3/19/2017 6:00 PM 81 48 0.65 0 9.35
3/19/2017 7:00 PM 78 54 0.08 0 8.11
3/19/2017 8:00 PM 76 57 0 0 7.4
3/19/2017 9:00 PM 74 60 0 0 7.29
3/19/2017 10:00 PM 73 60 0 0 6.2
3/19/2017 11:00 PM 72 61 0 0 5.62
Data Summary 72 66 21.20 0.00 5.74